sensor_id;sensor_type;location;lat;lon;timestamp;temperature;humidity
70151;DHT22;57517;43.562;19.540;2023-10-08T00:01:09;281.80;2278.40
70151;DHT22;57517;43.562;19.540;2023-10-08T00:03:38;281.90;2278.40
70151;DHT22;57517;43.562;19.540;2023-10-08T00:06:06;281.90;2278.40
70151;DHT22;57517;43.562;19.540;2023-10-08T00:08:33;281.90;2278.40
70151;DHT22;57517;43.562;19.540;2023-10-08T00:10:59;281.70;2278.40
70151;DHT22;57517;43.562;19.540;2023-10-08T00:13:31;256.80;2252.80
70151;DHT22;57517;43.562;19.540;2023-10-08T00:16:01;256.60;2252.80
70151;DHT22;57517;43.562;19.540;2023-10-08T00:18:27;256.70;2252.80
70151;DHT22;57517;43.562;19.540;2023-10-08T00:20:54;256.80;2252.80
70151;DHT22;57517;43.562;19.540;2023-10-08T00:23:38;256.90;2252.80
70151;DHT22;57517;43.562;19.540;2023-10-08T00:26:08;256.90;2252.80
70151;DHT22;57517;43.562;19.540;2023-10-08T00:28:34;281.60;2278.40
70151;DHT22;57517;43.562;19.540;2023-10-08T00:31:03;281.60;2278.40
70151;DHT22;57517;43.562;19.540;2023-10-08T00:33:37;256.90;2252.80
70151;DHT22;57517;43.562;19.540;2023-10-08T00:36:03;256.80;2252.80
70151;DHT22;57517;43.562;19.540;2023-10-08T00:38:43;256.60;2252.80
70151;DHT22;57517;43.562;19.540;2023-10-08T00:41:15;256.50;2252.80
70151;DHT22;57517;43.562;19.540;2023-10-08T00:43:42;256.30;2252.80
70151;DHT22;57517;43.562;19.540;2023-10-08T00:46:10;256.20;2252.80
70151;DHT22;57517;43.562;19.540;2023-10-08T00:48:58;256.30;2252.80
70151;DHT22;57517;43.562;19.540;2023-10-08T00:51:37;256.60;2252.80
70151;DHT22;57517;43.562;19.540;2023-10-08T00:54:06;256.60;2252.80
70151;DHT22;57517;43.562;19.540;2023-10-08T00:56:35;256.50;2252.80
70151;DHT22;57517;43.562;19.540;2023-10-08T00:59:23;256.30;2252.80
70151;DHT22;57517;43.562;19.540;2023-10-08T01:01:51;256.30;2252.80
70151;DHT22;57517;43.562;19.540;2023-10-08T01:04:21;256.10;2252.80
70151;DHT22;57517;43.562;19.540;2023-10-08T01:06:51;256.30;2252.80
70151;DHT22;57517;43.562;19.540;2023-10-08T01:09:21;256.20;2252.80
70151;DHT22;57517;43.562;19.540;2023-10-08T01:14:52;256.30;2252.80
70151;DHT22;57517;43.562;19.540;2023-10-08T01:17:23;256.00;2252.80
70151;DHT22;57517;43.562;19.540;2023-10-08T01:19:53;231.30;2252.80
70151;DHT22;57517;43.562;19.540;2023-10-08T01:22:37;231.10;2252.80
70151;DHT22;57517;43.562;19.540;2023-10-08T01:25:05;256.00;2252.80
70151;DHT22;57517;43.562;19.540;2023-10-08T01:27:31;256.00;2252.80
70151;DHT22;57517;43.562;19.540;2023-10-08T01:30:00;256.10;2252.80
70151;DHT22;57517;43.562;19.540;2023-10-08T01:32:43;256.10;2252.80
70151;DHT22;57517;43.562;19.540;2023-10-08T01:35:09;231.30;2252.80
70151;DHT22;57517;43.562;19.540;2023-10-08T01:37:52;256.00;2252.80
70151;DHT22;57517;43.562;19.540;2023-10-08T01:40:19;256.10;2252.80
70151;DHT22;57517;43.562;19.540;2023-10-08T01:42:45;256.20;2252.80
70151;DHT22;57517;43.562;19.540;2023-10-08T01:45:11;256.30;2252.80
70151;DHT22;57517;43.562;19.540;2023-10-08T01:47:43;256.30;2252.80
70151;DHT22;57517;43.562;19.540;2023-10-08T01:50:09;256.30;2252.80
70151;DHT22;57517;43.562;19.540;2023-10-08T01:52:47;256.40;2252.80
70151;DHT22;57517;43.562;19.540;2023-10-08T01:55:13;256.50;2252.80
70151;DHT22;57517;43.562;19.540;2023-10-08T01:57:44;256.50;2252.80
70151;DHT22;57517;43.562;19.540;2023-10-08T02:00:10;256.70;2252.80
70151;DHT22;57517;43.562;19.540;2023-10-08T02:02:37;256.80;2252.80
70151;DHT22;57517;43.562;19.540;2023-10-08T02:05:03;256.80;2252.80
70151;DHT22;57517;43.562;19.540;2023-10-08T02:07:29;256.70;2252.80
70151;DHT22;57517;43.562;19.540;2023-10-08T02:09:56;256.80;2252.80
70151;DHT22;57517;43.562;19.540;2023-10-08T02:12:23;256.90;2252.80
70151;DHT22;57517;43.562;19.540;2023-10-08T02:14:49;256.90;2252.80
70151;DHT22;57517;43.562;19.540;2023-10-08T02:17:15;256.90;2252.80
70151;DHT22;57517;43.562;19.540;2023-10-08T02:19:40;281.60;2278.40
70151;DHT22;57517;43.562;19.540;2023-10-08T02:22:07;281.60;2278.40
70151;DHT22;57517;43.562;19.540;2023-10-08T02:24:36;281.60;2278.40
70151;DHT22;57517;43.562;19.540;2023-10-08T02:27:02;281.70;2278.40
70151;DHT22;57517;43.562;19.540;2023-10-08T02:29:29;281.80;2278.40
70151;DHT22;57517;43.562;19.540;2023-10-08T02:31:56;281.70;2278.40
70151;DHT22;57517;43.562;19.540;2023-10-08T02:34:22;281.70;2278.40
70151;DHT22;57517;43.562;19.540;2023-10-08T02:36:48;281.80;2278.40
70151;DHT22;57517;43.562;19.540;2023-10-08T02:39:14;281.80;2278.40
70151;DHT22;57517;43.562;19.540;2023-10-08T02:41:53;281.80;2278.40
70151;DHT22;57517;43.562;19.540;2023-10-08T02:44:22;281.90;2278.40
70151;DHT22;57517;43.562;19.540;2023-10-08T02:46:48;281.90;2278.40
70151;DHT22;57517;43.562;19.540;2023-10-08T02:49:19;281.90;2278.40
70151;DHT22;57517;43.562;19.540;2023-10-08T02:51:55;281.90;2278.40
70151;DHT22;57517;43.562;19.540;2023-10-08T02:54:21;281.80;2278.40
70151;DHT22;57517;43.562;19.540;2023-10-08T02:56:58;281.80;2278.40
70151;DHT22;57517;43.562;19.540;2023-10-08T02:59:32;281.80;2278.40
70151;DHT22;57517;43.562;19.540;2023-10-08T03:02:09;281.80;2278.40
70151;DHT22;57517;43.562;19.540;2023-10-08T03:04:43;281.80;2278.40
70151;DHT22;57517;43.562;19.540;2023-10-08T03:07:12;281.60;2278.40
70151;DHT22;57517;43.562;19.540;2023-10-08T03:09:51;281.70;2278.40
70151;DHT22;57517;43.562;19.540;2023-10-08T03:12:17;281.70;2278.40
70151;DHT22;57517;43.562;19.540;2023-10-08T03:14:44;281.70;2278.40
70151;DHT22;57517;43.562;19.540;2023-10-08T03:17:28;281.70;2278.40
70151;DHT22;57517;43.562;19.540;2023-10-08T03:19:55;281.70;2278.40
70151;DHT22;57517;43.562;19.540;2023-10-08T03:22:43;281.60;2278.40
70151;DHT22;57517;43.562;19.540;2023-10-08T03:25:12;256.90;2252.80
70151;DHT22;57517;43.562;19.540;2023-10-08T03:27:46;256.90;2252.80
70151;DHT22;57517;43.562;19.540;2023-10-08T03:30:14;256.90;2252.80
70151;DHT22;57517;43.562;19.540;2023-10-08T03:32:44;256.80;2252.80
70151;DHT22;57517;43.562;19.540;2023-10-08T03:35:10;256.90;2252.80
70151;DHT22;57517;43.562;19.540;2023-10-08T03:37:38;281.60;2278.40
70151;DHT22;57517;43.562;19.540;2023-10-08T03:40:07;281.60;2278.40
70151;DHT22;57517;43.562;19.540;2023-10-08T03:42:48;281.70;2278.40
70151;DHT22;57517;43.562;19.540;2023-10-08T03:45:15;281.70;2278.40
70151;DHT22;57517;43.562;19.540;2023-10-08T03:47:48;281.70;2278.40
70151;DHT22;57517;43.562;19.540;2023-10-08T03:50:30;281.80;2278.40
70151;DHT22;57517;43.562;19.540;2023-10-08T03:53:09;281.60;2278.40
70151;DHT22;57517;43.562;19.540;2023-10-08T03:55:39;256.90;2252.80
70151;DHT22;57517;43.562;19.540;2023-10-08T03:58:09;256.90;2252.80
70151;DHT22;57517;43.562;19.540;2023-10-08T04:01:01;256.80;2252.80
70151;DHT22;57517;43.562;19.540;2023-10-08T04:03:45;256.70;2252.80
70151;DHT22;57517;43.562;19.540;2023-10-08T04:06:17;256.60;2252.80
70151;DHT22;57517;43.562;19.540;2023-10-08T04:08:48;256.50;2252.80
70151;DHT22;57517;43.562;19.540;2023-10-08T04:11:32;256.60;2252.80
70151;DHT22;57517;43.562;19.540;2023-10-08T04:14:01;256.60;2252.80
70151;DHT22;57517;43.562;19.540;2023-10-08T04:16:28;256.60;2252.80
70151;DHT22;57517;43.562;19.540;2023-10-08T04:18:55;256.70;2252.80
70151;DHT22;57517;43.562;19.540;2023-10-08T04:21:24;256.70;2252.80
70151;DHT22;57517;43.562;19.540;2023-10-08T04:23:53;256.80;2252.80
70151;DHT22;57517;43.562;19.540;2023-10-08T04:26:19;256.90;2252.80
70151;DHT22;57517;43.562;19.540;2023-10-08T04:28:55;256.80;2252.80
70151;DHT22;57517;43.562;19.540;2023-10-08T04:31:25;256.90;2252.80
70151;DHT22;57517;43.562;19.540;2023-10-08T04:34:03;256.80;2252.80
70151;DHT22;57517;43.562;19.540;2023-10-08T04:36:35;256.80;2252.80
70151;DHT22;57517;43.562;19.540;2023-10-08T04:39:04;256.70;2252.80
70151;DHT22;57517;43.562;19.540;2023-10-08T04:41:53;256.60;2252.80
70151;DHT22;57517;43.562;19.540;2023-10-08T04:44:20;256.60;2252.80
70151;DHT22;57517;43.562;19.540;2023-10-08T04:46:47;256.80;2252.80
70151;DHT22;57517;43.562;19.540;2023-10-08T04:49:14;256.90;2252.80
70151;DHT22;57517;43.562;19.540;2023-10-08T04:52:06;256.90;2252.80
70151;DHT22;57517;43.562;19.540;2023-10-08T04:54:42;256.80;2252.80
70151;DHT22;57517;43.562;19.540;2023-10-08T04:57:17;256.90;2252.80
70151;DHT22;57517;43.562;19.540;2023-10-08T04:59:44;256.90;2252.80
70151;DHT22;57517;43.562;19.540;2023-10-08T05:02:12;281.60;2278.40
70151;DHT22;57517;43.562;19.540;2023-10-08T05:04:39;256.90;2252.80
70151;DHT22;57517;43.562;19.540;2023-10-08T05:07:31;281.60;2278.40
70151;DHT22;57517;43.562;19.540;2023-10-08T05:10:16;256.90;2252.80
70151;DHT22;57517;43.562;19.540;2023-10-08T05:12:52;281.60;2278.40
70151;DHT22;57517;43.562;19.540;2023-10-08T05:15:41;281.60;2278.40
70151;DHT22;57517;43.562;19.540;2023-10-08T05:18:15;281.70;2278.40
70151;DHT22;57517;43.562;19.540;2023-10-08T05:20:44;281.60;2278.40
70151;DHT22;57517;43.562;19.540;2023-10-08T05:23:12;281.60;2278.40
70151;DHT22;57517;43.562;19.540;2023-10-08T05:25:54;256.90;2252.80
70151;DHT22;57517;43.562;19.540;2023-10-08T05:28:40;256.80;2252.80
70151;DHT22;57517;43.562;19.540;2023-10-08T05:31:24;256.80;2252.80
70151;DHT22;57517;43.562;19.540;2023-10-08T05:34:13;256.90;2252.80
70151;DHT22;57517;43.562;19.540;2023-10-08T05:36:57;256.90;2252.80
70151;DHT22;57517;43.562;19.540;2023-10-08T05:39:30;281.70;2278.40
70151;DHT22;57517;43.562;19.540;2023-10-08T05:42:06;281.70;2278.40
70151;DHT22;57517;43.562;19.540;2023-10-08T05:44:50;281.70;2278.40
70151;DHT22;57517;43.562;19.540;2023-10-08T05:47:36;281.80;2278.40
70151;DHT22;57517;43.562;19.540;2023-10-08T05:50:03;281.70;2278.40
70151;DHT22;57517;43.562;19.540;2023-10-08T05:52:42;281.80;2278.40
70151;DHT22;57517;43.562;19.540;2023-10-08T05:55:27;281.70;2278.40
70151;DHT22;57517;43.562;19.540;2023-10-08T06:00:42;256.90;2252.80
70151;DHT22;57517;43.562;19.540;2023-10-08T06:03:14;256.90;2252.80
70151;DHT22;57517;43.562;19.540;2023-10-08T06:06:00;281.70;2278.40
70151;DHT22;57517;43.562;19.540;2023-10-08T06:08:41;281.90;2278.40
70151;DHT22;57517;43.562;19.540;2023-10-08T06:11:26;282.00;2278.40
70151;DHT22;57517;43.562;19.540;2023-10-08T06:14:07;282.00;2278.40
70151;DHT22;57517;43.562;19.540;2023-10-08T06:16:45;282.10;2278.40
70151;DHT22;57517;43.562;19.540;2023-10-08T06:19:13;281.90;2278.40
70151;DHT22;57517;43.562;19.540;2023-10-08T06:21:41;281.80;2278.40
70151;DHT22;57517;43.562;19.540;2023-10-08T06:24:08;281.90;2278.40
70151;DHT22;57517;43.562;19.540;2023-10-08T06:26:40;282.00;2278.40
70151;DHT22;57517;43.562;19.540;2023-10-08T06:29:14;282.00;2278.40
70151;DHT22;57517;43.562;19.540;2023-10-08T06:31:56;282.00;2278.40
70151;DHT22;57517;43.562;19.540;2023-10-08T06:34:23;282.10;2278.40
70151;DHT22;57517;43.562;19.540;2023-10-08T06:36:51;282.40;2278.40
70151;DHT22;57517;43.562;19.540;2023-10-08T06:39:23;307.30;2304.00
70151;DHT22;57517;43.562;19.540;2023-10-08T06:41:59;307.60;2304.00
70151;DHT22;57517;43.562;19.540;2023-10-08T06:44:25;307.80;2278.40
70151;DHT22;57517;43.562;19.540;2023-10-08T06:46:53;307.60;2304.00
70151;DHT22;57517;43.562;19.540;2023-10-08T06:49:21;307.40;2304.00
70151;DHT22;57517;43.562;19.540;2023-10-08T06:51:50;307.30;2304.00
70151;DHT22;57517;43.562;19.540;2023-10-08T06:54:17;307.40;2304.00
70151;DHT22;57517;43.562;19.540;2023-10-08T06:56:44;307.40;2304.00
70151;DHT22;57517;43.562;19.540;2023-10-08T06:59:17;307.50;2304.00
70151;DHT22;57517;43.562;19.540;2023-10-08T07:01:43;307.70;2304.00
70151;DHT22;57517;43.562;19.540;2023-10-08T07:04:13;308.10;2278.40
70151;DHT22;57517;43.562;19.540;2023-10-08T07:06:42;333.00;2201.60
70151;DHT22;57517;43.562;19.540;2023-10-08T07:09:10;333.30;2124.80
70151;DHT22;57517;43.562;19.540;2023-10-08T07:11:51;333.50;2048.00
70151;DHT22;57517;43.562;19.540;2023-10-08T07:14:24;333.50;2048.00
70151;DHT22;57517;43.562;19.540;2023-10-08T07:16:56;333.60;2048.00
70151;DHT22;57517;43.562;19.540;2023-10-08T07:19:29;333.70;2022.40
70151;DHT22;57517;43.562;19.540;2023-10-08T07:22:05;358.40;1971.20
70151;DHT22;57517;43.562;19.540;2023-10-08T07:24:43;358.60;1945.60
70151;DHT22;57517;43.562;19.540;2023-10-08T07:27:11;358.60;1920.00
70151;DHT22;57517;43.562;19.540;2023-10-08T07:29:37;358.70;1945.60
70151;DHT22;57517;43.562;19.540;2023-10-08T07:32:03;358.80;1920.00
70151;DHT22;57517;43.562;19.540;2023-10-08T07:34:38;358.90;1920.00
70151;DHT22;57517;43.562;19.540;2023-10-08T07:37:04;358.90;1920.00
70151;DHT22;57517;43.562;19.540;2023-10-08T07:39:37;358.90;1894.40
70151;DHT22;57517;43.562;19.540;2023-10-08T07:42:10;359.00;1894.40
70151;DHT22;57517;43.562;19.540;2023-10-08T07:44:36;358.90;1894.40
70151;DHT22;57517;43.562;19.540;2023-10-08T07:47:05;358.90;1920.00
70151;DHT22;57517;43.562;19.540;2023-10-08T07:49:36;359.00;1894.40
70151;DHT22;57517;43.562;19.540;2023-10-08T07:52:02;358.90;1920.00
70151;DHT22;57517;43.562;19.540;2023-10-08T07:54:31;359.00;1894.40
70151;DHT22;57517;43.562;19.540;2023-10-08T07:57:01;359.10;1868.80
70151;DHT22;57517;43.562;19.540;2023-10-08T07:59:38;359.30;1843.20
70151;DHT22;57517;43.562;19.540;2023-10-08T08:02:07;384.10;1843.20
70151;DHT22;57517;43.562;19.540;2023-10-08T08:04:43;384.10;1868.80
70151;DHT22;57517;43.562;19.540;2023-10-08T08:07:11;384.00;1868.80
70151;DHT22;57517;43.562;19.540;2023-10-08T08:09:45;384.10;1843.20
70151;DHT22;57517;43.562;19.540;2023-10-08T08:12:22;384.00;1843.20
70151;DHT22;57517;43.562;19.540;2023-10-08T08:14:48;384.00;1843.20
70151;DHT22;57517;43.562;19.540;2023-10-08T08:17:14;384.00;1868.80
70151;DHT22;57517;43.562;19.540;2023-10-08T08:19:41;384.00;1868.80
70151;DHT22;57517;43.562;19.540;2023-10-08T08:22:09;359.20;1894.40
70151;DHT22;57517;43.562;19.540;2023-10-08T08:24:35;359.20;1868.80
70151;DHT22;57517;43.562;19.540;2023-10-08T08:27:03;384.00;1868.80
70151;DHT22;57517;43.562;19.540;2023-10-08T08:29:52;384.30;1843.20
70151;DHT22;57517;43.562;19.540;2023-10-08T08:32:24;384.90;1792.00
70151;DHT22;57517;43.562;19.540;2023-10-08T08:34:50;409.70;1792.00
70151;DHT22;57517;43.562;19.540;2023-10-08T08:37:16;410.50;1715.20
70151;DHT22;57517;43.562;19.540;2023-10-08T08:39:42;461.50;1715.20
70151;DHT22;57517;43.562;19.540;2023-10-08T08:42:08;538.20;1510.40
70151;DHT22;57517;43.562;19.540;2023-10-08T08:44:37;615.10;1254.40
70151;DHT22;57517;43.562;19.540;2023-10-08T08:47:14;614.60;1228.80
70151;DHT22;57517;43.562;19.540;2023-10-08T08:49:44;615.00;1203.20
70151;DHT22;57517;43.562;19.540;2023-10-08T08:52:13;640.10;1152.00
70151;DHT22;57517;43.562;19.540;2023-10-08T08:54:43;665.60;1075.20
70151;DHT22;57517;43.562;19.540;2023-10-08T08:57:10;640.30;1100.80
70151;DHT22;57517;43.562;19.540;2023-10-08T08:59:46;640.20;1100.80
70151;DHT22;57517;43.562;19.540;2023-10-08T09:02:14;640.30;1100.80
70151;DHT22;57517;43.562;19.540;2023-10-08T09:04:41;640.20;1075.20
70151;DHT22;57517;43.562;19.540;2023-10-08T09:07:07;615.10;1126.40
70151;DHT22;57517;43.562;19.540;2023-10-08T09:09:34;614.70;1152.00
70151;DHT22;57517;43.562;19.540;2023-10-08T09:12:03;614.70;1152.00
70151;DHT22;57517;43.562;19.540;2023-10-08T09:14:31;640.40;1075.20
70151;DHT22;57517;43.562;19.540;2023-10-08T09:17:01;666.00;1049.60
70151;DHT22;57517;43.562;19.540;2023-10-08T09:19:30;691.50;998.40
70151;DHT22;57517;43.562;19.540;2023-10-08T09:22:10;691.70;998.40
70151;DHT22;57517;43.562;19.540;2023-10-08T09:24:38;716.90;972.80
70151;DHT22;57517;43.562;19.540;2023-10-08T09:27:11;691.60;972.80
70151;DHT22;57517;43.562;19.540;2023-10-08T09:29:40;666.50;998.40
70151;DHT22;57517;43.562;19.540;2023-10-08T09:32:09;666.50;998.40
70151;DHT22;57517;43.562;19.540;2023-10-08T09:34:36;640.50;1049.60
70151;DHT22;57517;43.562;19.540;2023-10-08T09:37:02;615.00;1152.00
70151;DHT22;57517;43.562;19.540;2023-10-08T09:39:31;614.50;1203.20
70151;DHT22;57517;43.562;19.540;2023-10-08T09:42:01;614.40;1203.20
70151;DHT22;57517;43.562;19.540;2023-10-08T09:44:37;589.20;1228.80
70151;DHT22;57517;43.562;19.540;2023-10-08T09:47:05;563.90;1305.60
70151;DHT22;57517;43.562;19.540;2023-10-08T09:52:04;538.20;1305.60
70151;DHT22;57517;43.562;19.540;2023-10-08T09:55:22;512.90;1331.20
70151;DHT22;57517;43.562;19.540;2023-10-08T09:57:23;512.50;1356.80
70151;DHT22;57517;43.562;19.540;2023-10-08T09:59:52;512.30;1356.80
70151;DHT22;57517;43.562;19.540;2023-10-08T10:02:19;512.10;1382.40
70151;DHT22;57517;43.562;19.540;2023-10-08T10:04:52;512.20;1408.00
70151;DHT22;57517;43.562;19.540;2023-10-08T10:07:20;512.10;1408.00
70151;DHT22;57517;43.562;19.540;2023-10-08T10:09:50;512.20;1408.00
70151;DHT22;57517;43.562;19.540;2023-10-08T10:12:24;512.10;1408.00
70151;DHT22;57517;43.562;19.540;2023-10-08T10:14:52;512.00;1382.40
70151;DHT22;57517;43.562;19.540;2023-10-08T10:17:25;487.20;1433.60
70151;DHT22;57517;43.562;19.540;2023-10-08T10:19:55;487.10;1433.60
70151;DHT22;57517;43.562;19.540;2023-10-08T10:22:34;486.90;1459.20
70151;DHT22;57517;43.562;19.540;2023-10-08T10:25:04;486.90;1459.20
70151;DHT22;57517;43.562;19.540;2023-10-08T10:30:19;486.70;1459.20
70151;DHT22;57517;43.562;19.540;2023-10-08T10:32:46;486.50;1484.80
70151;DHT22;57517;43.562;19.540;2023-10-08T10:35:15;486.50;1510.40
70151;DHT22;57517;43.562;19.540;2023-10-08T10:37:43;486.60;1510.40
70151;DHT22;57517;43.562;19.540;2023-10-08T10:40:21;486.70;1459.20
70151;DHT22;57517;43.562;19.540;2023-10-08T10:43:00;486.70;1459.20
70151;DHT22;57517;43.562;19.540;2023-10-08T10:45:29;486.70;1459.20
70151;DHT22;57517;43.562;19.540;2023-10-08T10:48:04;486.80;1459.20
70151;DHT22;57517;43.562;19.540;2023-10-08T10:50:42;486.90;1484.80
70151;DHT22;57517;43.562;19.540;2023-10-08T10:53:26;486.90;1484.80
70151;DHT22;57517;43.562;19.540;2023-10-08T10:55:55;487.10;1459.20
70151;DHT22;57517;43.562;19.540;2023-10-08T10:58:35;487.30;1459.20
70151;DHT22;57517;43.562;19.540;2023-10-08T11:01:05;512.10;1433.60
70151;DHT22;57517;43.562;19.540;2023-10-08T11:03:41;512.10;1408.00
70151;DHT22;57517;43.562;19.540;2023-10-08T11:06:08;512.20;1382.40
70151;DHT22;57517;43.562;19.540;2023-10-08T11:08:41;512.40;1408.00
70151;DHT22;57517;43.562;19.540;2023-10-08T11:11:11;512.60;1408.00
70151;DHT22;57517;43.562;19.540;2023-10-08T11:13:37;512.70;1408.00
70151;DHT22;57517;43.562;19.540;2023-10-08T11:16:05;512.60;1408.00
70151;DHT22;57517;43.562;19.540;2023-10-08T11:18:33;512.60;1408.00
70151;DHT22;57517;43.562;19.540;2023-10-08T11:21:09;512.50;1408.00
70151;DHT22;57517;43.562;19.540;2023-10-08T11:23:46;512.60;1433.60
70151;DHT22;57517;43.562;19.540;2023-10-08T11:26:25;512.60;1433.60
70151;DHT22;57517;43.562;19.540;2023-10-08T11:29:01;512.60;1408.00
70151;DHT22;57517;43.562;19.540;2023-10-08T11:31:28;512.80;1433.60
70151;DHT22;57517;43.562;19.540;2023-10-08T11:34:00;512.80;1408.00
70151;DHT22;57517;43.562;19.540;2023-10-08T11:36:28;537.70;1408.00
70151;DHT22;57517;43.562;19.540;2023-10-08T11:39:09;537.80;1408.00
70151;DHT22;57517;43.562;19.540;2023-10-08T11:41:36;537.70;1408.00
70151;DHT22;57517;43.562;19.540;2023-10-08T11:44:31;537.60;1382.40
70151;DHT22;57517;43.562;19.540;2023-10-08T11:47:01;512.70;1382.40
70151;DHT22;57517;43.562;19.540;2023-10-08T11:49:38;512.50;1408.00
70151;DHT22;57517;43.562;19.540;2023-10-08T11:52:12;512.40;1408.00
70151;DHT22;57517;43.562;19.540;2023-10-08T11:54:43;512.40;1433.60
70151;DHT22;57517;43.562;19.540;2023-10-08T11:57:10;512.50;1433.60
70151;DHT22;57517;43.562;19.540;2023-10-08T11:59:37;512.50;1382.40
70151;DHT22;57517;43.562;19.540;2023-10-08T12:02:08;512.50;1382.40
70151;DHT22;57517;43.562;19.540;2023-10-08T12:04:34;512.50;1408.00
70151;DHT22;57517;43.562;19.540;2023-10-08T12:07:01;512.40;1408.00
70151;DHT22;57517;43.562;19.540;2023-10-08T12:09:33;512.30;1408.00
70151;DHT22;57517;43.562;19.540;2023-10-08T12:12:04;512.20;1408.00
70151;DHT22;57517;43.562;19.540;2023-10-08T12:14:35;512.30;1382.40
70151;DHT22;57517;43.562;19.540;2023-10-08T12:17:04;512.10;1382.40
70151;DHT22;57517;43.562;19.540;2023-10-08T12:19:37;512.10;1408.00
70151;DHT22;57517;43.562;19.540;2023-10-08T12:22:06;512.10;1408.00
70151;DHT22;57517;43.562;19.540;2023-10-08T12:24:34;512.20;1408.00
70151;DHT22;57517;43.562;19.540;2023-10-08T12:27:00;512.10;1408.00
70151;DHT22;57517;43.562;19.540;2023-10-08T12:29:28;512.10;1433.60
70151;DHT22;57517;43.562;19.540;2023-10-08T12:31:56;512.10;1408.00
70151;DHT22;57517;43.562;19.540;2023-10-08T12:34:25;512.20;1408.00
70151;DHT22;57517;43.562;19.540;2023-10-08T12:36:51;512.20;1408.00
70151;DHT22;57517;43.562;19.540;2023-10-08T12:39:17;512.30;1382.40
70151;DHT22;57517;43.562;19.540;2023-10-08T12:41:44;512.40;1408.00
70151;DHT22;57517;43.562;19.540;2023-10-08T12:44:13;512.50;1408.00
70151;DHT22;57517;43.562;19.540;2023-10-08T12:46:41;512.50;1408.00
70151;DHT22;57517;43.562;19.540;2023-10-08T12:49:09;512.50;1408.00
70151;DHT22;57517;43.562;19.540;2023-10-08T12:51:35;512.60;1433.60
70151;DHT22;57517;43.562;19.540;2023-10-08T12:54:06;512.60;1433.60
70151;DHT22;57517;43.562;19.540;2023-10-08T12:56:34;512.70;1433.60
70151;DHT22;57517;43.562;19.540;2023-10-08T12:59:10;512.70;1433.60
70151;DHT22;57517;43.562;19.540;2023-10-08T13:01:48;512.80;1433.60
70151;DHT22;57517;43.562;19.540;2023-10-08T13:04:19;512.80;1433.60
70151;DHT22;57517;43.562;19.540;2023-10-08T13:06:57;512.90;1433.60
70151;DHT22;57517;43.562;19.540;2023-10-08T13:09:26;512.90;1408.00
70151;DHT22;57517;43.562;19.540;2023-10-08T13:11:52;512.90;1408.00
70151;DHT22;57517;43.562;19.540;2023-10-08T13:14:18;512.90;1433.60
70151;DHT22;57517;43.562;19.540;2023-10-08T13:16:44;512.90;1433.60
70151;DHT22;57517;43.562;19.540;2023-10-08T13:19:11;512.90;1433.60
70151;DHT22;57517;43.562;19.540;2023-10-08T13:21:37;512.90;1433.60
70151;DHT22;57517;43.562;19.540;2023-10-08T13:24:03;537.60;1459.20
70151;DHT22;57517;43.562;19.540;2023-10-08T13:26:31;537.70;1459.20
70151;DHT22;57517;43.562;19.540;2023-10-08T13:28:57;537.70;1459.20
70151;DHT22;57517;43.562;19.540;2023-10-08T13:31:27;537.70;1459.20
70151;DHT22;57517;43.562;19.540;2023-10-08T13:33:53;537.70;1433.60
70151;DHT22;57517;43.562;19.540;2023-10-08T13:36:22;537.80;1433.60
70151;DHT22;57517;43.562;19.540;2023-10-08T13:38:49;537.90;1459.20
70151;DHT22;57517;43.562;19.540;2023-10-08T13:41:15;538.00;1433.60
70151;DHT22;57517;43.562;19.540;2023-10-08T13:43:49;538.10;1459.20
70151;DHT22;57517;43.562;19.540;2023-10-08T13:46:18;538.10;1459.20
70151;DHT22;57517;43.562;19.540;2023-10-08T13:48:47;538.10;1459.20
70151;DHT22;57517;43.562;19.540;2023-10-08T13:51:20;538.10;1433.60
70151;DHT22;57517;43.562;19.540;2023-10-08T13:53:53;538.20;1408.00
70151;DHT22;57517;43.562;19.540;2023-10-08T13:56:27;538.20;1408.00
70151;DHT22;57517;43.562;19.540;2023-10-08T13:58:56;538.20;1408.00
70151;DHT22;57517;43.562;19.540;2023-10-08T14:01:40;538.30;1433.60
70151;DHT22;57517;43.562;19.540;2023-10-08T14:04:11;538.30;1433.60
70151;DHT22;57517;43.562;19.540;2023-10-08T14:06:38;538.30;1433.60
70151;DHT22;57517;43.562;19.540;2023-10-08T14:09:08;538.30;1408.00
70151;DHT22;57517;43.562;19.540;2023-10-08T14:11:48;538.30;1408.00
70151;DHT22;57517;43.562;19.540;2023-10-08T14:14:18;538.30;1408.00
70151;DHT22;57517;43.562;19.540;2023-10-08T14:16:45;538.30;1459.20
70151;DHT22;57517;43.562;19.540;2023-10-08T14:19:17;538.30;1459.20
70151;DHT22;57517;43.562;19.540;2023-10-08T14:21:43;538.30;1484.80
70151;DHT22;57517;43.562;19.540;2023-10-08T14:24:16;538.20;1484.80
70151;DHT22;57517;43.562;19.540;2023-10-08T14:26:42;538.20;1484.80
70151;DHT22;57517;43.562;19.540;2023-10-08T14:29:09;538.20;1484.80
70151;DHT22;57517;43.562;19.540;2023-10-08T14:31:43;538.30;1459.20
70151;DHT22;57517;43.562;19.540;2023-10-08T14:34:24;538.30;1510.40
70151;DHT22;57517;43.562;19.540;2023-10-08T14:37:09;538.30;1510.40
70151;DHT22;57517;43.562;19.540;2023-10-08T14:39:53;538.30;1510.40
70151;DHT22;57517;43.562;19.540;2023-10-08T14:42:38;538.40;1536.00
70151;DHT22;57517;43.562;19.540;2023-10-08T14:45:34;538.40;1561.60
70151;DHT22;57517;43.562;19.540;2023-10-08T14:48:06;538.50;1587.20
70151;DHT22;57517;43.562;19.540;2023-10-08T14:50:36;538.50;1587.20
70151;DHT22;57517;43.562;19.540;2023-10-08T14:53:04;538.50;1612.80
70151;DHT22;57517;43.562;19.540;2023-10-08T14:55:34;538.50;1587.20
70151;DHT22;57517;43.562;19.540;2023-10-08T14:58:01;538.50;1587.20
70151;DHT22;57517;43.562;19.540;2023-10-08T15:00:33;538.40;1587.20
70151;DHT22;57517;43.562;19.540;2023-10-08T15:03:02;538.40;1612.80
70151;DHT22;57517;43.562;19.540;2023-10-08T15:05:31;538.40;1561.60
70151;DHT22;57517;43.562;19.540;2023-10-08T15:07:57;538.40;1561.60
70151;DHT22;57517;43.562;19.540;2023-10-08T15:10:22;538.40;1561.60
70151;DHT22;57517;43.562;19.540;2023-10-08T15:12:49;538.40;1587.20